Terminal Aerodrome Forecast
Issued by NWS Jackson, MS

Home | Current Version | Previous Version | Text Only | Print | Product List | Glossary On
Versions: 1 2 3 4 5 6 7 8 9 10 11 12
000
FTUS44 KJAN 281139
TAFJAN
TAF
KJAN 281139Z 2812/2912 04006KT P6SM OVC060
     FM281300 02008KT 6SM -RA VCTS SCT015 BKN050CB
     FM281800 02009KT P6SM VCSH OVC015
     FM290600 36005KT P6SM OVC007=

USA.gov is the U.S. government's official web portal to all federal, state and local government web resources and services.